createdAt,value
2023-05-14T00:00:31.839Z,18.83
2023-05-14T00:02:58.500Z,20.17
2023-05-14T00:05:25.083Z,21.25
2023-05-14T00:07:51.547Z,19.65
2023-05-14T00:10:20.304Z,25.27
2023-05-14T00:12:46.716Z,20.13
2023-05-14T00:15:13.272Z,18.23
2023-05-14T00:17:39.843Z,21.55
2023-05-14T00:20:11.989Z,24.30
2023-05-14T00:22:39.580Z,24.73
2023-05-14T00:25:07.558Z,23.60
2023-05-14T00:27:34.967Z,23.05
2023-05-14T00:30:01.428Z,25.58
2023-05-14T00:32:27.903Z,23.17
2023-05-14T00:34:54.297Z,21.08
2023-05-14T00:37:20.650Z,21.80
2023-05-14T00:39:47.104Z,25.10
2023-05-14T00:42:13.584Z,24.70
2023-05-14T00:44:40.014Z,23.17
2023-05-14T00:47:07.369Z,22.20
2023-05-14T00:49:34.940Z,20.52
2023-05-14T00:52:01.664Z,26.02
2023-05-14T00:54:28.676Z,22.23
2023-05-14T00:59:22.484Z,21.73
2023-05-14T01:01:49.099Z,24.67
2023-05-14T01:04:15.914Z,32.78
2023-05-14T01:06:48.305Z,22.30
2023-05-14T01:09:21.980Z,21.63
2023-05-14T01:11:59.894Z,22.25
2023-05-14T01:17:13.384Z,21.70
2023-05-14T01:19:41.845Z,21.92
2023-05-14T01:22:08.451Z,23.60
2023-05-14T01:24:34.991Z,22.98
2023-05-14T01:27:15.915Z,23.17
2023-05-14T01:29:45.464Z,26.95
2023-05-14T01:32:13.407Z,23.83
2023-05-14T01:34:40.921Z,25.45
2023-05-14T01:39:37.914Z,22.98
2023-05-14T01:42:05.176Z,24.80
2023-05-14T01:44:32.147Z,21.85
2023-05-14T01:46:58.606Z,24.58
2023-05-14T01:49:25.056Z,23.98
2023-05-14T01:51:51.581Z,22.27
2023-05-14T01:54:18.010Z,24.20
2023-05-14T01:56:44.599Z,22.90
2023-05-14T01:59:12.226Z,22.98
2023-05-14T02:01:38.694Z,24.25
2023-05-14T02:04:07.239Z,22.27
2023-05-14T02:06:33.623Z,27.77
2023-05-14T02:09:00.130Z,23.92
2023-05-14T02:11:26.637Z,26.08
2023-05-14T02:13:53.068Z,24.83
2023-05-14T02:16:19.540Z,27.87
2023-05-14T02:18:46.054Z,28.23
2023-05-14T02:21:12.517Z,28.87
2023-05-14T02:23:41.863Z,25.02
2023-05-14T02:26:12.292Z,26.27
2023-05-14T02:28:38.758Z,25.17
2023-05-14T02:31:05.326Z,24.33
2023-05-14T02:33:31.852Z,23.25
2023-05-14T02:35:58.397Z,29.03
2023-05-14T02:38:26.768Z,25.95
2023-05-14T02:40:53.267Z,29.00
2023-05-14T02:43:19.697Z,25.03
2023-05-14T02:45:46.081Z,23.42
2023-05-14T02:48:12.559Z,26.10
2023-05-14T02:50:39.049Z,29.03
2023-05-14T02:53:05.674Z,26.80
2023-05-14T02:55:33.068Z,26.10
2023-05-14T03:00:26.096Z,24.90
2023-05-14T03:02:53.173Z,26.05
2023-05-14T03:05:21.012Z,26.83
2023-05-14T03:07:47.390Z,28.17
2023-05-14T03:10:14.868Z,28.58
2023-05-14T03:12:41.679Z,27.13
2023-05-14T03:15:08.976Z,27.13
2023-05-14T03:17:35.524Z,31.52
2023-05-14T03:20:02.293Z,29.33
2023-05-14T03:22:28.888Z,28.75
2023-05-14T03:24:55.282Z,31.55
2023-05-14T03:27:21.726Z,26.67
2023-05-14T03:29:48.140Z,33.93
2023-05-14T03:32:14.889Z,29.60
2023-05-14T03:34:41.550Z,31.98
2023-05-14T03:37:08.029Z,30.15
2023-05-14T03:39:34.542Z,40.58
2023-05-14T03:42:01.005Z,34.75
2023-05-14T03:44:27.679Z,31.48
2023-05-14T03:46:57.405Z,27.40
2023-05-14T03:49:23.869Z,30.45
2023-05-14T03:51:50.559Z,27.10
2023-05-14T03:54:20.188Z,26.77
2023-05-14T03:56:47.635Z,27.92
2023-05-14T04:01:40.520Z,27.55
2023-05-14T04:04:07.103Z,28.17
2023-05-14T04:06:33.924Z,39.20
2023-05-14T04:09:00.514Z,32.60
2023-05-14T04:11:27.270Z,28.63
2023-05-14T04:13:56.188Z,29.65
2023-05-14T04:16:23.413Z,29.25
2023-05-14T04:18:50.125Z,28.38
2023-05-14T04:21:16.886Z,31.67
2023-05-14T04:23:43.305Z,35.10
2023-05-14T04:26:09.705Z,25.77
2023-05-14T04:28:36.167Z,26.25
2023-05-14T04:31:12.122Z,30.30
2023-05-14T04:33:38.602Z,32.35
2023-05-14T04:36:05.755Z,31.20
2023-05-14T04:38:33.197Z,33.50
2023-05-14T04:43:26.068Z,28.48
2023-05-14T04:46:02.436Z,27.53
2023-05-14T04:48:29.146Z,32.30
2023-05-14T04:50:55.582Z,33.72
2023-05-14T04:53:22.042Z,29.73
2023-05-14T04:55:49.721Z,26.57
2023-05-14T04:58:16.261Z,29.00
2023-05-14T05:00:42.790Z,29.47
2023-05-14T05:03:12.595Z,29.87
2023-05-14T05:05:39.174Z,29.08
2023-05-14T05:08:05.734Z,31.40
2023-05-14T05:10:39.366Z,25.83
2023-05-14T05:13:05.837Z,32.83
2023-05-14T05:15:32.255Z,34.13
2023-05-14T05:17:58.750Z,29.90
2023-05-14T05:20:25.699Z,27.53
2023-05-14T05:22:52.166Z,33.17
2023-05-14T05:25:18.848Z,30.33
2023-05-14T05:27:45.384Z,33.33
2023-05-14T05:30:18.219Z,28.17
2023-05-14T05:32:44.778Z,25.33
2023-05-14T05:35:11.260Z,32.63
2023-05-14T05:37:41.457Z,30.87
2023-05-14T05:40:09.255Z,26.48
2023-05-14T05:42:37.675Z,31.83
2023-05-14T05:45:04.517Z,27.33
2023-05-14T05:47:30.988Z,30.27
2023-05-14T05:49:57.475Z,27.20
2023-05-14T05:52:24.073Z,26.70
2023-05-14T05:54:50.520Z,29.15
2023-05-14T05:57:18.005Z,24.93
2023-05-14T05:59:44.414Z,25.33
2023-05-14T06:02:11.086Z,27.13
2023-05-14T06:04:37.670Z,27.48
2023-05-14T06:07:04.335Z,30.45
2023-05-14T06:09:30.698Z,28.55
2023-05-14T06:11:57.091Z,28.70
2023-05-14T06:14:23.555Z,24.97
2023-05-14T06:17:02.176Z,23.20
2023-05-14T06:19:29.872Z,27.17
2023-05-14T06:21:56.259Z,27.50
2023-05-14T06:24:23.765Z,23.30
2023-05-14T06:26:50.270Z,28.55
2023-05-14T06:29:17.676Z,24.07
2023-05-14T06:31:44.284Z,29.23
2023-05-14T06:34:12.122Z,27.38
2023-05-14T06:36:38.544Z,28.30
2023-05-14T06:39:07.170Z,23.58
2023-05-14T06:41:34.122Z,25.00
2023-05-14T06:44:01.207Z,24.02
2023-05-14T06:46:27.714Z,26.80
2023-05-14T06:48:54.254Z,24.50
2023-05-14T06:51:20.899Z,32.17
2023-05-14T06:53:48.815Z,24.80
2023-05-14T06:56:16.278Z,22.58
2023-05-14T06:58:42.789Z,21.20
2023-05-14T07:01:09.598Z,19.77
2023-05-14T07:03:44.164Z,22.60
2023-05-14T07:06:12.480Z,23.08
2023-05-14T07:08:42.671Z,25.45
2023-05-14T07:11:09.121Z,27.45
2023-05-14T07:13:36.258Z,24.63
2023-05-14T07:16:07.240Z,19.88
2023-05-14T07:18:35.857Z,22.23
2023-05-14T07:21:02.409Z,19.75
2023-05-14T07:23:28.800Z,23.60
2023-05-14T07:25:55.268Z,19.10
2023-05-14T07:28:26.866Z,20.90
2023-05-14T07:30:53.324Z,24.85
2023-05-14T07:33:21.105Z,25.92
2023-05-14T07:35:47.657Z,23.55
2023-05-14T07:38:16.916Z,23.08
2023-05-14T07:40:51.347Z,20.50
2023-05-14T07:43:18.929Z,23.80
2023-05-14T07:45:45.535Z,20.70
2023-05-14T07:48:12.272Z,22.40
2023-05-14T07:50:41.465Z,20.73
2023-05-14T07:53:08.107Z,22.90
2023-05-14T07:55:34.637Z,19.80
2023-05-14T07:58:02.066Z,21.85
2023-05-14T08:00:28.698Z,25.25
2023-05-14T08:02:55.742Z,17.05
2023-05-14T08:07:53.091Z,16.85
2023-05-14T08:10:19.789Z,15.68
2023-05-14T08:12:46.193Z,21.90
2023-05-14T08:15:12.653Z,18.50
2023-05-14T08:17:39.151Z,19.98
2023-05-14T08:20:06.920Z,20.48
2023-05-14T08:22:45.605Z,20.67
2023-05-14T08:25:12.472Z,16.98
2023-05-14T08:27:39.031Z,16.02
2023-05-14T08:30:14.536Z,19.48
2023-05-14T08:32:41.278Z,17.60
2023-05-14T08:35:08.377Z,17.63
2023-05-14T08:37:34.935Z,20.42
2023-05-14T08:40:01.597Z,20.67
2023-05-14T08:42:43.086Z,21.55
2023-05-14T08:45:17.958Z,20.50
2023-05-14T08:47:49.368Z,16.67
2023-05-14T08:50:17.154Z,17.17
2023-05-14T08:52:44.303Z,15.60
2023-05-14T08:57:39.003Z,15.13
2023-05-14T09:00:08.821Z,17.30
2023-05-14T09:02:36.690Z,21.00
2023-05-14T09:05:03.965Z,23.75
2023-05-14T09:07:33.956Z,21.50
2023-05-14T09:10:02.046Z,18.55
2023-05-14T09:12:29.480Z,17.80
2023-05-14T09:14:57.080Z,19.77
2023-05-14T09:17:26.104Z,16.90
2023-05-14T09:19:59.860Z,20.13
2023-05-14T09:22:30.114Z,16.23
2023-05-14T09:25:12.308Z,14.18
2023-05-14T09:27:40.883Z,15.10
2023-05-14T09:30:12.495Z,15.02
2023-05-14T09:32:41.313Z,16.40
2023-05-14T09:35:24.893Z,18.08
2023-05-14T09:37:54.750Z,16.65
2023-05-14T09:40:23.649Z,17.75
2023-05-14T09:42:53.080Z,17.67
2023-05-14T09:45:19.645Z,15.20
2023-05-14T09:47:46.303Z,15.25
2023-05-14T09:50:14.083Z,18.35
2023-05-14T09:52:41.000Z,15.88
2023-05-14T09:57:35.348Z,15.05
2023-05-14T10:00:01.812Z,12.57
2023-05-14T10:02:37.734Z,12.18
2023-05-14T10:05:06.804Z,17.48
2023-05-14T10:07:41.604Z,17.27
2023-05-14T10:10:13.532Z,16.50
2023-05-14T10:12:40.718Z,21.45
2023-05-14T10:15:16.407Z,12.65
2023-05-14T10:17:46.734Z,19.02
2023-05-14T10:20:16.713Z,14.35
2023-05-14T10:22:43.299Z,15.20
2023-05-14T10:25:10.955Z,20.90
2023-05-14T10:27:39.443Z,24.75
2023-05-14T10:30:11.945Z,18.35
2023-05-14T10:32:39.088Z,15.43
2023-05-14T10:35:20.831Z,14.70
2023-05-14T10:37:52.682Z,13.90
2023-05-14T10:40:21.044Z,22.27
2023-05-14T10:42:48.478Z,14.98
2023-05-14T10:45:16.121Z,12.43
2023-05-14T10:47:45.271Z,14.68
2023-05-14T10:50:14.560Z,17.15
2023-05-14T10:52:45.628Z,14.32
2023-05-14T10:55:19.022Z,16.52
2023-05-14T10:57:46.909Z,19.30
2023-05-14T11:00:14.847Z,15.77
2023-05-14T11:02:56.110Z,19.38
2023-05-14T11:05:22.717Z,20.27
2023-05-14T11:07:50.295Z,18.67
2023-05-14T11:10:20.808Z,15.85
2023-05-14T11:12:49.379Z,16.50
2023-05-14T11:15:19.922Z,15.13
2023-05-14T11:17:48.319Z,14.77
2023-05-14T11:20:21.185Z,13.77
2023-05-14T11:22:49.336Z,14.32
2023-05-14T11:25:18.368Z,11.88
2023-05-14T11:27:46.328Z,12.48
2023-05-14T11:30:20.548Z,16.55
2023-05-14T11:32:49.421Z,14.05
2023-05-14T11:35:18.065Z,12.98
2023-05-14T11:37:57.733Z,12.90
2023-05-14T11:40:24.441Z,17.88
2023-05-14T11:42:53.427Z,20.00
2023-05-14T11:45:27.675Z,13.00
2023-05-14T11:48:00.192Z,13.82
2023-05-14T11:50:27.152Z,20.17
2023-05-14T11:52:57.215Z,10.75
2023-05-14T11:55:23.853Z,8.98
2023-05-14T11:57:51.235Z,8.70
2023-05-14T12:00:22.109Z,14.15
2023-05-14T12:02:49.950Z,10.10
2023-05-14T12:05:17.053Z,12.93
2023-05-14T12:07:49.484Z,13.05
2023-05-14T12:10:16.348Z,17.45
2023-05-14T12:12:49.802Z,9.95
2023-05-14T12:15:21.778Z,10.25
2023-05-14T12:17:54.023Z,10.80
2023-05-14T12:20:23.789Z,9.15
2023-05-14T12:22:50.707Z,11.43
2023-05-14T12:25:17.547Z,15.65
2023-05-14T12:30:21.626Z,16.55
2023-05-14T12:32:51.724Z,8.40
2023-05-14T12:35:22.600Z,7.38
2023-05-14T12:37:49.542Z,6.88
2023-05-14T12:40:15.936Z,7.40
2023-05-14T12:42:43.521Z,9.48
2023-05-14T12:45:10.422Z,7.20
2023-05-14T12:50:04.347Z,8.40
2023-05-14T12:52:39.193Z,6.65
2023-05-14T12:55:09.657Z,10.07
2023-05-14T12:57:39.582Z,9.07
2023-05-14T13:00:08.103Z,13.35
2023-05-14T13:02:42.142Z,10.38
2023-05-14T13:05:09.196Z,10.95
2023-05-14T13:07:37.304Z,8.02
2023-05-14T13:10:05.880Z,8.25
2023-05-14T13:12:32.737Z,6.60
2023-05-14T13:15:00.791Z,8.30
2023-05-14T13:17:27.515Z,6.22
2023-05-14T13:19:54.238Z,5.93
2023-05-14T13:22:20.996Z,7.93
2023-05-14T13:24:47.411Z,6.80
2023-05-14T13:29:40.275Z,7.43
2023-05-14T13:32:07.107Z,6.95
2023-05-14T13:34:33.816Z,10.07
2023-05-14T13:37:00.242Z,8.77
2023-05-14T13:41:57.094Z,6.45
2023-05-14T13:44:25.732Z,13.68
2023-05-14T13:46:52.740Z,6.35
2023-05-14T13:49:19.219Z,5.93
2023-05-14T13:51:47.642Z,4.65
2023-05-14T13:54:22.211Z,7.10
2023-05-14T13:56:52.968Z,8.07
2023-05-14T13:59:20.634Z,8.43
2023-05-14T14:01:48.217Z,9.18
2023-05-14T14:04:25.670Z,5.15
2023-05-14T14:06:52.153Z,7.47
2023-05-14T14:09:18.687Z,6.57
2023-05-14T14:14:20.186Z,9.35
2023-05-14T14:16:47.605Z,13.52
2023-05-14T14:19:16.042Z,11.25
2023-05-14T14:21:43.852Z,6.50
2023-05-14T14:24:10.624Z,4.47
2023-05-14T14:26:37.034Z,9.77
2023-05-14T14:29:03.613Z,6.07
2023-05-14T14:33:57.584Z,6.50
2023-05-14T14:38:50.494Z,6.45
2023-05-14T14:41:16.884Z,8.23
2023-05-14T14:43:43.518Z,5.22
2023-05-14T14:48:37.810Z,7.95
2023-05-14T14:51:06.304Z,6.18
2023-05-14T14:53:34.007Z,9.75
2023-05-14T14:56:01.210Z,8.82
2023-05-14T14:58:27.963Z,6.97
2023-05-14T15:00:57.302Z,6.60
2023-05-14T15:03:24.927Z,7.68
2023-05-14T15:05:58.644Z,12.90
2023-05-14T15:08:30.028Z,12.70
2023-05-14T15:11:00.515Z,6.50
2023-05-14T15:13:27.200Z,9.27
2023-05-14T15:15:53.653Z,7.88
2023-05-14T15:20:47.315Z,13.27
2023-05-14T15:25:40.158Z,10.50
2023-05-14T15:30:33.769Z,5.88
2023-05-14T15:35:27.014Z,5.43
2023-05-14T15:37:58.384Z,6.60
2023-05-14T15:40:27.353Z,5.03
2023-05-14T15:42:54.094Z,8.85
2023-05-14T15:47:49.589Z,6.07
2023-05-14T15:50:16.064Z,7.68
2023-05-14T15:55:09.354Z,9.13
2023-05-14T15:57:45.540Z,6.45
2023-05-14T16:00:12.626Z,6.28
2023-05-14T16:02:40.336Z,7.00
2023-05-14T16:05:08.610Z,6.70
2023-05-14T16:07:36.122Z,5.82
2023-05-14T16:10:02.559Z,10.02
2023-05-14T16:12:29.010Z,10.23
2023-05-14T16:14:57.433Z,5.97
2023-05-14T16:17:23.921Z,12.10
2023-05-14T16:19:50.507Z,6.45
2023-05-14T16:22:16.918Z,13.23
2023-05-14T16:24:45.452Z,7.38
2023-05-14T16:27:12.222Z,13.30
2023-05-14T16:29:38.985Z,8.00
2023-05-14T16:32:08.987Z,7.25
2023-05-14T16:34:37.682Z,7.03
2023-05-14T16:37:04.693Z,5.57
2023-05-14T16:39:40.471Z,8.50
2023-05-14T16:42:06.913Z,6.03
2023-05-14T16:44:33.422Z,6.38
2023-05-14T16:46:59.845Z,6.72
2023-05-14T16:49:26.306Z,6.90
2023-05-14T16:51:52.718Z,11.07
2023-05-14T16:54:19.129Z,5.57
2023-05-14T16:56:48.492Z,9.88
2023-05-14T16:59:16.018Z,7.13
2023-05-14T17:01:47.844Z,6.45
2023-05-14T17:04:17.746Z,6.00
2023-05-14T17:06:45.998Z,14.93
2023-05-14T17:09:12.429Z,7.38
2023-05-14T17:11:38.834Z,7.15
2023-05-14T17:14:06.434Z,9.95
2023-05-14T17:16:33.915Z,13.13
2023-05-14T17:19:00.514Z,7.43
2023-05-14T17:21:27.781Z,13.35
2023-05-14T17:23:54.612Z,9.75
2023-05-14T17:28:48.237Z,7.43
2023-05-14T17:31:14.765Z,7.50
2023-05-14T17:33:41.337Z,8.23
2023-05-14T17:36:07.912Z,9.07
2023-05-14T17:38:34.688Z,9.50
2023-05-14T17:43:28.590Z,14.00
2023-05-14T17:45:55.262Z,8.70
2023-05-14T17:48:23.177Z,11.18
2023-05-14T17:50:51.598Z,6.70
2023-05-14T17:53:24.386Z,6.80
2023-05-14T17:55:51.437Z,7.90
2023-05-14T17:58:17.891Z,9.95
2023-05-14T18:00:44.789Z,8.48
2023-05-14T18:05:38.450Z,7.15
2023-05-14T18:08:05.285Z,9.43
2023-05-14T18:10:31.903Z,9.43
2023-05-14T18:12:58.322Z,7.65
2023-05-14T18:15:25.555Z,6.68
2023-05-14T18:17:52.737Z,10.23
2023-05-14T18:20:19.631Z,8.52
2023-05-14T18:22:46.486Z,6.22
2023-05-14T18:27:44.580Z,16.88
2023-05-14T18:30:13.300Z,7.80
2023-05-14T18:32:41.586Z,7.28
2023-05-14T18:35:09.915Z,10.30
2023-05-14T18:37:36.827Z,8.95
2023-05-14T18:40:04.857Z,7.72
2023-05-14T18:42:35.007Z,7.50
2023-05-14T18:45:11.697Z,7.18
2023-05-14T18:47:39.687Z,10.93
2023-05-14T18:50:07.888Z,11.05
2023-05-14T18:52:41.626Z,10.30
2023-05-14T18:55:08.498Z,13.93
2023-05-14T18:57:36.800Z,15.43
2023-05-14T19:00:05.074Z,10.45
2023-05-14T19:02:31.661Z,14.18
2023-05-14T19:04:58.175Z,10.13
2023-05-14T19:07:30.342Z,15.45
2023-05-14T19:09:57.228Z,10.60
2023-05-14T19:12:23.855Z,12.38
2023-05-14T19:14:50.439Z,9.48
2023-05-14T19:17:18.564Z,9.65
2023-05-14T19:19:46.937Z,10.23
2023-05-14T19:22:13.397Z,9.43
2023-05-14T19:24:40.098Z,9.88
2023-05-14T19:27:06.446Z,13.38
2023-05-14T19:29:34.209Z,15.63
2023-05-14T19:32:00.946Z,17.20
2023-05-14T19:34:28.680Z,20.13
2023-05-14T19:36:55.540Z,14.80
2023-05-14T19:39:23.895Z,20.70
2023-05-14T19:41:50.303Z,20.67
2023-05-14T19:44:16.700Z,19.85
2023-05-14T19:46:43.237Z,20.40
2023-05-14T19:49:09.771Z,21.20
2023-05-14T19:51:36.283Z,21.38
2023-05-14T19:54:06.796Z,18.73
2023-05-14T19:56:33.361Z,27.70
2023-05-14T19:58:59.788Z,27.30
2023-05-14T20:01:26.705Z,22.83
2023-05-14T20:04:00.187Z,23.60
2023-05-14T20:06:27.141Z,21.90
2023-05-14T20:08:55.131Z,23.92
2023-05-14T20:11:21.909Z,22.92
2023-05-14T20:13:48.735Z,23.52
2023-05-14T20:16:17.453Z,27.83
2023-05-14T20:18:44.598Z,24.23
2023-05-14T20:23:37.652Z,27.85
2023-05-14T20:26:04.624Z,24.42
2023-05-14T20:28:31.051Z,24.77
2023-05-14T20:31:01.173Z,28.25
2023-05-14T20:33:29.232Z,23.95
2023-05-14T20:35:56.199Z,23.33
2023-05-14T20:38:22.893Z,25.05
2023-05-14T20:40:49.451Z,24.38
2023-05-14T20:43:16.087Z,26.70
2023-05-14T20:45:42.556Z,27.95
2023-05-14T20:48:11.415Z,24.77
2023-05-14T20:50:37.965Z,26.75
2023-05-14T20:53:04.388Z,32.83
2023-05-14T20:55:32.067Z,26.10
2023-05-14T20:57:58.533Z,27.83
2023-05-14T21:00:25.180Z,27.50
2023-05-14T21:02:51.758Z,25.63
2023-05-14T21:05:18.458Z,27.55
2023-05-14T21:07:44.973Z,30.75
2023-05-14T21:10:11.481Z,23.55
2023-05-14T21:12:37.938Z,29.70
2023-05-14T21:15:04.732Z,25.80
2023-05-14T21:17:31.422Z,34.65
2023-05-14T21:19:57.892Z,33.55
2023-05-14T21:22:24.695Z,26.10
2023-05-14T21:24:51.329Z,32.80
2023-05-14T21:27:17.816Z,31.88
2023-05-14T21:29:47.141Z,28.13
2023-05-14T21:32:13.671Z,33.30
2023-05-14T21:34:40.113Z,30.45
2023-05-14T21:37:06.751Z,29.10
2023-05-14T21:39:33.342Z,31.20
2023-05-14T21:41:59.813Z,30.55
2023-05-14T21:44:26.445Z,27.98
2023-05-14T21:46:52.886Z,29.88
2023-05-14T21:49:19.298Z,29.58
2023-05-14T21:51:45.740Z,31.00
2023-05-14T21:54:12.172Z,27.90
2023-05-14T21:56:38.675Z,29.87
2023-05-14T21:59:05.066Z,29.92
2023-05-14T22:01:32.589Z,27.23
2023-05-14T22:04:00.296Z,34.30
2023-05-14T22:06:26.756Z,32.92
2023-05-14T22:08:53.481Z,29.85
2023-05-14T22:11:19.881Z,28.73
2023-05-14T22:13:46.425Z,35.38
2023-05-14T22:16:14.036Z,27.45
2023-05-14T22:18:41.073Z,31.45
2023-05-14T22:21:07.616Z,30.08
2023-05-14T22:23:34.266Z,31.73
2023-05-14T22:26:00.852Z,29.85
2023-05-14T22:28:27.581Z,34.58
2023-05-14T22:30:54.081Z,30.00
2023-05-14T22:33:20.705Z,31.70
2023-05-14T22:35:47.226Z,27.00
2023-05-14T22:38:14.052Z,29.08
2023-05-14T22:40:40.522Z,29.85
2023-05-14T22:43:06.909Z,29.20
2023-05-14T22:45:33.463Z,26.97
2023-05-14T22:48:00.050Z,27.38
2023-05-14T22:50:26.869Z,31.55
2023-05-14T22:52:53.386Z,26.80
2023-05-14T22:55:19.777Z,33.75
2023-05-14T22:57:46.207Z,31.53
2023-05-14T23:00:13.220Z,34.93
2023-05-14T23:02:39.685Z,29.50
2023-05-14T23:05:07.651Z,26.90
2023-05-14T23:07:34.542Z,27.55
2023-05-14T23:10:01.029Z,29.48
2023-05-14T23:12:27.458Z,25.20
2023-05-14T23:14:53.842Z,27.63
2023-05-14T23:17:20.279Z,27.27
2023-05-14T23:19:46.805Z,27.73
2023-05-14T23:22:13.358Z,31.55
2023-05-14T23:24:39.756Z,26.80
2023-05-14T23:27:06.386Z,29.60
2023-05-14T23:29:32.882Z,28.73
2023-05-14T23:31:59.334Z,30.77
2023-05-14T23:34:25.829Z,29.87
2023-05-14T23:36:52.716Z,27.63
2023-05-14T23:39:19.267Z,26.38
2023-05-14T23:41:45.798Z,30.52
2023-05-14T23:44:12.290Z,28.17
2023-05-14T23:46:38.796Z,32.77
2023-05-14T23:49:05.339Z,34.80
2023-05-14T23:51:31.894Z,29.33
2023-05-14T23:53:58.511Z,28.20
2023-05-14T23:56:26.302Z,28.13
2023-05-14T23:58:53.082Z,30.30
